| time (UTC) | temp C | wind direction | speed KPH | gust KPH | rain 1hr cm | rain 24hr cm | rain mn cm | humidity % | barometer mb |
| 20260507030425 | 17 | 132 | 0.0 | 3.2 | 0.00 | 0.00 | 0.00 | 75 | |
| 20260507024425 | 18 | 43 | 0.0 | 1.6 | 0.00 | 0.00 | 0.00 | 72 | 1017.1 |
| 20260507022427 | 18 | 22 | 1.6 | 4.8 | 0.00 | 0.00 | 0.00 | 70 | |
| 20260507020426 | 19 | 93 | 1.6 | 3.2 | 0.00 | 0.00 | 0.00 | 66 | |
| 20260507014425 | 20 | 33 | 1.6 | 3.2 | 0.00 | 0.00 | 0.00 | 63 | 1016.8 |
| 20260507012426 | 21 | 50 | 1.6 | 4.8 | 0.00 | 0.00 | 0.00 | 57 | |
| 20260507010428 | 22 | 360 | 3.2 | 4.8 | 0.00 | 0.00 | 0.00 | 53 | |
| 20260507004427 | 22 | 343 | 1.6 | 3.2 | 0.00 | 0.00 | 0.00 | 51 | 1016.7 |
| 20260507002426 | 23 | 360 | 1.6 | 3.2 | 0.00 | 0.00 | 0.00 | 50 | |
| 20260507000427 | 23 | 122 | 1.6 | 4.8 | 0.00 | 0.00 | 0.00 | 49 | 1016.8 |
| 20260506234425 | 23 | 67 | 1.6 | 4.8 | 0.00 | 0.00 | 0.00 | 48 | |
| 20260506232426 | 24 | 0 | 0.0 | 4.8 | 0.00 | 0.00 | 0.00 | 47 | 1017.1 |
| 20260506230426 | 24 | 22 | 3.2 | 3.2 | 0.00 | 0.00 | 0.00 | 47 | 1017.0 |
| 20260506224426 | 25 | 360 | 3.2 | 4.8 | 0.00 | 0.00 | 0.00 | 46 | 1017.2 |
| 20260506222425 | 25 | 360 | 3.2 | 3.2 | 0.00 | 0.00 | 0.00 | 44 | 1017.4 |
| 20260506220426 | 26 | 116 | 1.6 | 3.2 | 0.00 | 0.00 | 0.00 | 42 | 1017.6 |
| 20260506214426 | 26 | 123 | 0.0 | 3.2 | 0.00 | 0.00 | 0.00 | 41 | 1017.9 |
| 20260506212426 | 27 | 76 | 0.0 | 1.6 | 0.00 | 0.00 | 0.00 | 40 | 1018.1 |
| 20260506210426 | 27 | 88 | 1.6 | 3.2 | 0.00 | 0.00 | 0.00 | 39 | 1018.2 |
| 20260506204425 | 27 | 44 | 1.6 | 3.2 | 0.00 | 0.00 | 0.00 | 39 | |
| 20260506200426 | 24 | 82 | 1.6 | 3.2 | 0.00 | 0.00 | 0.00 | 45 | 1018.6 |
| 20260506190428 | 24 | 0 | 0.0 | 0.0 | 0.00 | 0.00 | 0.00 | 45 | 1019.4 |
| 20260506180425 | 22 | 90 | 3.2 | 4.8 | 0.00 | 0.00 | 0.00 | 51 | 1019.9 |
| 20260506170426 | 18 | 0 | 0.0 | 0.0 | 0.00 | 0.00 | 0.00 | 61 | 1020.1 |
| 20260506164425 | 18 | 0 | 0.0 | 1.6 | 0.00 | 0.00 | 0.00 | 63 | 1020.1 |
| 20260506162426 | 17 | 0 | 0.0 | 0.0 | 0.00 | 0.00 | 0.00 | 67 | 1019.9 |
| 20260506160426 | 16 | 0 | 0.0 | 0.0 | 0.00 | 0.00 | 0.00 | 71 | |
| 20260506154425 | 15 | 0 | 0.0 | 0.0 | 0.00 | 0.00 | 0.00 | 76 | |
| 20260506152425 | 14 | 0 | 0.0 | 0.0 | 0.00 | 0.00 | 0.00 | 79 | |
| 20260506150427 | 13 | 0 | 0.0 | 0.0 | 0.00 | 0.00 | 0.00 | 81 | 1019.7 |
| 20260506144425 | 13 | 0 | 0.0 | 0.0 | 0.00 | 0.00 | 0.00 | 82 | |
| 20260506142425 | 13 | 0 | 0.0 | 0.0 | 0.00 | 0.00 | 0.00 | 83 | |
| 20260506140428 | 13 | 0 | 0.0 | 1.6 | 0.00 | 0.00 | 0.00 | 83 | 1019.4 |
| 20260506134428 | 13 | 0 | 0.0 | 0.0 | 0.00 | 0.00 | 0.00 | 83 | |
| 20260506132425 | 13 | 0 | 0.0 | 0.0 | 0.00 | 0.00 | 0.00 | 83 | |
| 20260506130425 | 13 | 0 | 0.0 | 0.0 | 0.00 | 0.00 | 0.00 | 83 | 1019.0 |
| 20260506124425 | 13 | 0 | 0.0 | 0.0 | 0.00 | 0.00 | 0.00 | 82 | |
| 20260506122425 | 13 | 0 | 0.0 | 0.0 | 0.00 | 0.00 | 0.00 | 82 | |
| 20260506120426 | 13 | 0 | 0.0 | 0.0 | 0.00 | 0.00 | 0.00 | 83 | 1018.5 |
| 20260506114427 | 13 | 0 | 0.0 | 0.0 | 0.00 | 0.00 | 0.00 | 83 | |
| 20260506110426 | 13 | 0 | 0.0 | 0.0 | 0.00 | 0.00 | 0.00 | 82 | 1018.4 |
| 20260506104425 | 13 | 0 | 0.0 | 0.0 | 0.00 | 0.00 | 0.00 | 82 | |
| 20260506102426 | 13 | 0 | 0.0 | 0.0 | 0.00 | 0.00 | 0.00 | 82 | |
| 20260506100426 | 13 | 0 | 0.0 | 0.0 | 0.00 | 0.00 | 0.00 | 81 | |
| 20260506094425 | 13 | 0 | 0.0 | 0.0 | 0.00 | 0.00 | 0.00 | 80 | |
| 20260506090426 | 13 | 0 | 0.0 | 0.0 | 0.00 | 0.00 | 0.00 | 79 | |
| 20260506084425 | 13 | 0 | 0.0 | 0.0 | 0.00 | 0.00 | 0.00 | 80 | 1018.4 |
| 20260506082426 | 13 | 0 | 0.0 | 0.0 | 0.00 | 0.00 | 0.00 | 78 | |
| 20260506080426 | 13 | 0 | 0.0 | 0.0 | 0.00 | 0.00 | 0.00 | 78 | |
| 20260506072425 | 14 | 0 | 0.0 | 0.0 | 0.00 | 0.00 | 0.00 | 76 | 1017.6 |
| 20260506070426 | 14 | 0 | 0.0 | 0.0 | 0.00 | 0.00 | 0.00 | 76 | 1017.5 |
| 20260506062425 | 14 | 0 | 0.0 | 0.0 | 0.00 | 0.00 | 0.00 | 74 | 1017.4 |
| 20260506060425 | 15 | 0 | 0.0 | 0.0 | 0.00 | 0.00 | 0.00 | 73 | 1017.2 |
| 20260506044425 | 15 | 0 | 0.0 | 0.0 | 0.00 | 0.00 | 0.00 | 70 | 1016.4 |
| 20260506042426 | 15 | 0 | 0.0 | 0.0 | 0.00 | 0.00 | 0.00 | 69 | 1016.1 |
| 20260506040426 | 15 | 0 | 0.0 | 0.0 | 0.00 | 0.00 | 0.00 | 68 | 1016.0 |
| 20260506034427 | 15 | 0 | 0.0 | 0.0 | 0.00 | 0.00 | 0.00 | 68 | 1015.5 |
| 20260506032425 | 16 | 0 | 0.0 | 0.0 | 0.00 | 0.00 | 0.00 | 68 | 1015.4 |